Nearby METAR Reports

METAR is the scheduled surface weather observation taken hourly at civil and military airport locations.

METAR is an acronym from the French language and roughly translates as Aviation Routine Weather Report.

 

EGPL - Benbecula Island, United Kingdom
Distance from station: WNW 41mi, 66km
Updated: 01/12/2021 03:20
Mostly cloudy
Mostly cloudy
 Wind from NW
Wind: NW 30 mph , 48 km/h
Temperature: 8°C
Wind Chill: 3°C
Dew Point: 5°C
Humidity: 82%
Barometer: 995 hPa
Clouds: Mostly cloudy
Visibility: 6 miles , 10 km
Cloud details: Mostly cloudy 610 m
Mostly cloudy 853 m
2021/12/01 03:20 EGPL 010320Z AUTO 31026KT 9999 BKN020/// BKN028/// 08/05 Q0995
EGPU - Tiree Island, United Kingdom
Distance from station: SSW 56mi, 90km
Updated: 01/12/2021 03:20
Partly cloudy
Partly cloudy
 Wind from NW
Wind: NW 28 mph , 44 km/h
Temperature: 8°C
Wind Chill: 3°C
Dew Point: 5°C
Humidity: 82%
Barometer: 996 hPa
Clouds: Partly cloudy
Visibility: 6 miles , 10 km
Cloud details: Few Clouds 732 m
Partly cloudy 1128 m
2021/12/01 03:20 EGPU 010320Z AUTO 32024KT 9999 FEW024/// SCT037/// 08/05 Q0996
 
EGEO - Oban Airport, United Kingdom
Distance from station: SE 65mi, 105km
Updated: 30/11/2021 15:50
NOT Current
Light rain, Drizzle, Overcast
Light rain, Drizzle, Overcast
 Wind from WNW
Wind: WNW 7 mph , 11 km/h
Temperature: 11°C
Dew Point: 10°C
Humidity: 94%
Barometer: 997 hPa
Summary: Light rain, Drizzle
Clouds: Overcast
Visibility: 2 miles , 4 km
Cloud details: Overcast 152 m
2021/11/30 15:50 EGEO 301550Z 29006KT 3500 -RADZ OVC005 11/10 Q0997
EGPO - Stornoway, United Kingdom
Distance from station: 0 66mi, 106km
Updated: 01/12/2021 03:20
Light rain, Showers, Mostly cloudy
Light rain, Showers, Mostly cloudy
 Wind from NNE
Wind: NNE 24 mph , 39 km/h
Temperature: 7°C
Wind Chill: 2°C
Dew Point: 5°C
Humidity: 87%
Barometer: 994 hPa
Summary: Light rain, Showers
Clouds: Mostly cloudy
Visibility: 6 miles , 10 km
Cloud details: Few Clouds 366 m
Partly cloudy 549 m
Mostly cloudy 853 m
2021/12/01 03:20 EGPO 010320Z 03021KT 9999 -SHRA FEW012 SCT018 BKN028 07/05 Q0994
 
EGPE - Inverness/Dalcro, United Kingdom
Distance from station: ENE 88mi, 141km
Updated: 01/12/2021 03:20
Mostly cloudy
Mostly cloudy
 Wind from W
Wind: W 5 mph , 7 km/h
Temperature: 6°C
Wind Chill: 4°C
Dew Point: 5°C
Humidity: 93%
Barometer: 992 hPa
Clouds: Mostly cloudy
Visibility: 6 miles , 10 km
Cloud details: Few Clouds 366 m
Mostly cloudy 975 m
2021/12/01 03:20 EGPE 010320Z 26004KT 9999 FEW012 BKN032 06/05 Q0992
EGQA - Tain Range (saws, United Kingdom
Distance from station: ENE 97mi, 156km
Updated: 29/11/2021 14:50
NOT Current
Mostly cloudy
Mostly cloudy
 Wind from SSW
Wind: SSW 9 mph , 15 km/h
Clouds: Mostly cloudy
Visibility: 6 miles , 10 km
Cloud details: Few Clouds 305 m
Partly cloudy 457 m
Mostly cloudy 610 m
2021/11/29 14:50 EGQA 291450Z 20008KT 9999 FEW010 SCT015 BKN020 06/// Q1002 RMK WHT
 
EGQK - Kinloss Raf, United Kingdom
Distance from station: ENE 107mi, 171km
Updated: 01/12/2021 02:50
Mostly cloudy
Mostly cloudy
 Wind from WNW
Wind: WNW 13 mph , 20 km/h
Temperature: 7°C
Wind Chill: 4°C
Dew Point: 5°C
Humidity: 87%
Barometer: 991 hPa
Clouds: Mostly cloudy
Visibility: 6 miles , 10 km
Cloud details: Partly cloudy 762 m
Partly cloudy 1250 m
Mostly cloudy 2743 m
2021/12/01 02:50 EGQK 010250Z AUTO 30011KT 9999 SCT025/// SCT041/// BKN090/// 07/05 Q0991 RERA
EGPI - Islay/Port Ellen, United Kingdom
Distance from station: S 110mi, 177km
Updated: 01/12/2021 03:20
Clear
Clear
 Wind from NW
Wind: NW 25 mph , 41 km/h
Temperature: 7°C
Wind Chill: 2°C
Dew Point: 5°C
Humidity: 87%
Barometer: 996 hPa
Clouds: Clear
Visibility: 6 miles , 10 km
2021/12/01 03:20 EGPI 010320Z AUTO 31022KT 9999 NCD 07/05 Q0996 REUP
 
EGQS - Lossiemouth Raf, United Kingdom
Distance from station: ENE 117mi, 188km
Updated: 01/12/2021 02:50
Mostly cloudy
Mostly cloudy
 Wind from NW
Wind: NW 14 mph , 22 km/h
Temperature: 8°C
Wind Chill: 4°C
Dew Point: 6°C
Humidity: 87%
Barometer: 991 hPa
Clouds: Mostly cloudy
Visibility: 6 miles , 10 km
Cloud details: Partly cloudy 396 m
Mostly cloudy 823 m
Mostly cloudy 1219 m
2021/12/01 02:50 EGQS 010250Z 32012KT 9999 SCT013 BKN027 BKN040 08/06 Q0991 RMK GRN
EGPF - Glasgow Airport, United Kingdom
Distance from station: SE 121mi, 195km
Updated: 01/12/2021 03:20
Mostly cloudy
Mostly cloudy
 Wind from WNW
Wind: WNW 20 mph , 31 km/h
Temperature: 8°C
Wind Chill: 3°C
Dew Point: 5°C
Humidity: 82%
Barometer: 993 hPa
Clouds: Mostly cloudy
Visibility: 6 miles , 10 km
Cloud details: Mostly cloudy 884 m
2021/12/01 03:20 EGPF 010320Z AUTO 29017KT 9999 BKN029 08/05 Q0993
 
EGEC - Campbeltown, United Kingdom
Distance from station: SSE 129mi, 207km
Updated: 01/12/2021 00:20
NOT Current
Few Clouds
Few Clouds
 Wind from NW
Wind: NW 28 mph , 44 km/h, Gust: 39 mph , 63 km/h
Temperature: 9°C
Wind Chill: 4°C
Dew Point: 7°C
Humidity: 87%
Barometer: 995 hPa
Clouds: Few Clouds
Visibility: 6 miles , 10 km
Cloud details: Few Clouds 1036 m
2021/12/01 00:20 EGEC 010020Z 32024G34KT 9999 // FEW034 09/07 Q0995
EGPN - Dundee/Riverside, United Kingdom
Distance from station: ESE 137mi, 221km
Updated: 30/11/2021 20:50
NOT Current
Rain, Partly cloudy
Rain, Partly cloudy
 Wind from N
Wind: N 7 mph , 11 km/h
Temperature: 9°C
Wind Chill: 7°C
Dew Point: 8°C
Humidity: 94%
Barometer: 991 hPa
Summary: Rain
Clouds: Partly cloudy
Visibility: 4 miles , 7 km
Cloud details: Few Clouds 305 m
Partly cloudy 1067 m
2021/11/30 20:50 EGPN 302050Z 01006KT 330V050 7000 RA FEW010 SCT035 09/08 Q0991
 
EGPK - Prestwick(Civ/Na, United Kingdom
Distance from station: SSE 139mi, 224km
Updated: 01/12/2021 03:20
Few Clouds
Few Clouds
 Wind from NW
Wind: NW 20 mph , 31 km/h
Temperature: 8°C
Wind Chill: 3°C
Dew Point: 5°C
Humidity: 82%
Barometer: 994 hPa
Clouds: Few Clouds
Visibility: 6 miles , 10 km
Cloud details: Few Clouds 701 m
2021/12/01 03:20 EGPK 010320Z 31017KT 9999 FEW023 08/05 Q0994
EGQL - Leuchars Raf, United Kingdom
Distance from station: ESE 145mi, 233km
Updated: 01/12/2021 02:50
Clear
Clear
 Wind from WNW
Wind: WNW 10 mph , 17 km/h
Temperature: 8°C
Wind Chill: 5°C
Dew Point: 4°C
Humidity: 76%
Barometer: 989 hPa
Summary: Clear
Visibility: greater than 7 miles , 10 km
2021/12/01 02:50 EGQL 010250Z 30009KT CAVOK 08/04 Q0989 RMK BLU
 
EGPH - Edinburgh Airpor, United Kingdom
Distance from station: SE 145mi, 234km
Updated: 01/12/2021 03:20
Clear
Clear
 Wind from W
Wind: W 7 mph , 11 km/h
Temperature: 7°C
Wind Chill: 5°C
Dew Point: 5°C
Humidity: 87%
Barometer: 991 hPa
Summary: Clear
Visibility: greater than 7 miles , 10 km
2021/12/01 03:20 EGPH 010320Z 27006KT CAVOK 07/05 Q0991
EGPC - Wick, United Kingdom
Distance from station: NE 146mi, 234km
Updated: 01/12/2021 03:20
Light rain, Mostly cloudy
Light rain, Mostly cloudy
 Wind from NE
Wind: NE 14 mph , 22 km/h
Temperature: 5°C
Wind Chill: 1°C
Dew Point: 3°C
Humidity: 87%
Barometer: 993 hPa
Summary: Light rain
Clouds: Mostly cloudy
Visibility: 4 miles , 7 km
Cloud details: Partly cloudy 335 m
Mostly cloudy 518 m
Mostly cloudy 671 m
2021/12/01 03:20 EGPC 010320Z AUTO 04012KT 7000 -RA SCT011/// BKN017/// BKN022/// 05/03 Q0993

-

free counters
QR Code Twitter Scottish Weather Network UK Weather Network
Argyll House B & B

Argyll House B & B is situated in North West Skye and is the perfect base to see all that the Isle of Skye has to offer. Bookings are been taken for 2021 and 2022